Time;durP1;ratioP1;P1;durP2;ratioP2;P2;SDS_P1;SDS_P2;PMS_P1;PMS_P2;Temp;Humidity;BMP_temperature;BMP_pressure;BME280_temperature;BME280_humidity;BME280_pressure;Samples;Min_cycle;Max_cycle;Signal;HPM_P1;HPM_P2
2023/01/25 00:01:45;;;;;;;;;;;17.40;63.60;;;;;;5018632;28;924;-72
2023/01/25 00:04:11;;;;;;;;;;;17.40;63.60;;;;;;5020206;28;890;-72
2023/01/25 00:06:36;;;;;;;;;;;17.40;63.60;;;;;;5018891;28;908;-72
2023/01/25 00:09:02;;;;;;;;;;;17.40;63.60;;;;;;5018728;28;1375;-72
2023/01/25 00:11:27;;;;;;;;;;;17.40;63.70;;;;;;5019061;28;1209;-71
2023/01/25 00:13:53;;;;;;;;;;;17.40;63.60;;;;;;5019092;28;895;-72
2023/01/25 00:16:18;;;;;;;;;;;17.40;63.70;;;;;;5039050;28;1157;-71
2023/01/25 00:18:44;;;;;;;;;;;17.40;63.60;;;;;;5025106;28;1914;-72
2023/01/25 00:21:13;;;;;;;;;;;17.40;63.70;;;;;;5022554;28;1065;-71
2023/01/25 00:23:38;;;;;;;;;;;17.40;63.70;;;;;;5027497;28;946;-71
2023/01/25 00:26:04;;;;;;;;;;;17.40;63.70;;;;;;5022176;28;870;-71
2023/01/25 00:28:29;;;;;;;;;;;17.40;63.70;;;;;;5020776;28;1373;-72
2023/01/25 00:31:01;;;;;;;;;;;17.40;63.70;;;;;;5019288;28;875;-72
2023/01/25 00:33:32;;;;;;;;;;;17.40;64.50;;;;;;5054676;28;940;-72
2023/01/25 00:35:58;;;;;;;;;;;17.40;63.70;;;;;;5023010;28;839;-71
2023/01/25 00:38:26;;;;;;;;;;;17.40;63.70;;;;;;5025285;28;1981;-71
2023/01/25 00:40:52;;;;;;;;;;;17.40;63.70;;;;;;5023692;28;1005;-71
2023/01/25 00:43:17;;;;;;;;;;;17.40;63.70;;;;;;5021764;28;788;-71
2023/01/25 00:45:42;;;;;;;;;;;17.40;63.70;;;;;;5022189;28;859;-71
2023/01/25 00:48:08;;;;;;;;;;;17.40;63.70;;;;;;5022473;28;1290;-71
2023/01/25 00:50:35;;;;;;;;;;;17.40;63.70;;;;;;5018408;28;901;-71
2023/01/25 00:53:01;;;;;;;;;;;17.40;63.70;;;;;;5021048;28;787;-72
2023/01/25 00:55:26;;;;;;;;;;;17.40;63.70;;;;;;5024615;28;880;-71
2023/01/25 00:57:51;;;;;;;;;;;17.40;63.80;;;;;;5020703;28;1256;-72
2023/01/25 01:00:17;;;;;;;;;;;17.40;63.70;;;;;;5020246;28;1890;-71
2023/01/25 01:02:42;;;;;;;;;;;17.40;63.80;;;;;;5021768;28;1085;-72
2023/01/25 01:05:08;;;;;;;;;;;17.40;63.80;;;;;;5026323;28;1235;-72
2023/01/25 01:07:33;;;;;;;;;;;17.40;63.80;;;;;;5022647;28;1294;-73
2023/01/25 01:09:59;;;;;;;;;;;17.40;63.80;;;;;;5023261;28;890;-72
2023/01/25 01:12:24;;;;;;;;;;;17.40;63.80;;;;;;5022147;28;998;-72
2023/01/25 01:14:50;;;;;;;;;;;17.40;63.80;;;;;;5018806;28;822;-72
2023/01/25 01:17:15;;;;;;;;;;;17.40;63.80;;;;;;5015888;28;1328;-72
2023/01/25 01:19:41;;;;;;;;;;;17.40;63.80;;;;;;5018991;28;1991;-73
2023/01/25 01:22:06;;;;;;;;;;;17.40;63.80;;;;;;5022867;28;932;-73
2023/01/25 01:24:32;;;;;;;;;;;17.40;63.80;;;;;;5022673;28;769;-73
2023/01/25 01:26:57;;;;;;;;;;;17.30;63.70;;;;;;5038837;28;1265;-70
2023/01/25 01:29:23;;;;;;;;;;;17.40;63.80;;;;;;5016754;28;833;-70
2023/01/25 01:31:50;;;;;;;;;;;17.40;63.80;;;;;;5017379;28;805;-70
2023/01/25 01:34:15;;;;;;;;;;;17.30;63.70;;;;;;5055156;28;1251;-71
2023/01/25 01:36:41;;;;;;;;;;;17.40;63.80;;;;;;5036901;28;1173;-71
2023/01/25 01:39:06;;;;;;;;;;;17.40;63.80;;;;;;5053008;28;1967;-70
2023/01/25 01:41:32;;;;;;;;;;;17.30;63.80;;;;;;5054922;28;886;-70
2023/01/25 01:44:00;;;;;;;;;;;17.40;63.80;;;;;;5022919;28;1276;-71
2023/01/25 01:46:36;;;;;;;;;;;17.30;63.80;;;;;;5021724;28;1088;-71
2023/01/25 01:49:02;;;;;;;;;;;17.30;63.80;;;;;;5028873;28;1280;-70
2023/01/25 01:51:34;;;;;;;;;;;17.30;63.80;;;;;;5052654;28;982;-71
2023/01/25 01:54:01;;;;;;;;;;;17.30;63.80;;;;;;5024837;28;841;-70
2023/01/25 01:56:31;;;;;;;;;;;17.30;63.80;;;;;;5034695;28;1346;-71
2023/01/25 01:58:57;;;;;;;;;;;17.30;63.90;;;;;;5018380;28;1966;-71
2023/01/25 02:01:22;;;;;;;;;;;17.30;63.80;;;;;;5021839;28;825;-71
2023/01/25 02:03:48;;;;;;;;;;;17.30;63.80;;;;;;5018153;28;1265;-71
2023/01/25 02:06:14;;;;;;;;;;;17.30;63.90;;;;;;5028188;28;1315;-71
2023/01/25 02:08:41;;;;;;;;;;;17.30;63.80;;;;;;5051904;28;1428;-71
2023/01/25 02:11:07;;;;;;;;;;;17.30;63.80;;;;;;5020030;28;892;-72
2023/01/25 02:13:33;;;;;;;;;;;17.30;63.90;;;;;;5022814;28;789;-72
2023/01/25 02:15:58;;;;;;;;;;;17.30;63.80;;;;;;5020317;28;981;-73
2023/01/25 02:18:24;;;;;;;;;;;17.30;63.90;;;;;;5021407;28;1967;-72
2023/01/25 02:20:50;;;;;;;;;;;17.30;63.90;;;;;;5049878;28;874;-72
2023/01/25 02:23:19;;;;;;;;;;;17.30;63.90;;;;;;5018293;28;922;-72
2023/01/25 02:25:44;;;;;;;;;;;17.30;63.90;;;;;;5019551;28;805;-71
2023/01/25 02:28:14;;;;;;;;;;;17.30;63.90;;;;;;5022000;28;1284;-71
2023/01/25 02:30:40;;;;;;;;;;;17.30;64.60;;;;;;5020619;28;907;-70
2023/01/25 02:33:05;;;;;;;;;;;17.30;63.90;;;;;;5020922;28;1587;-70
2023/01/25 02:35:41;;;;;;;;;;;17.30;63.90;;;;;;5018732;28;1369;-69
2023/01/25 02:38:07;;;;;;;;;;;17.30;63.90;;;;;;5055322;28;1548;-70
2023/01/25 02:40:33;;;;;;;;;;;17.30;63.90;;;;;;5019249;28;1972;-71
2023/01/25 02:42:59;;;;;;;;;;;17.30;63.90;;;;;;5056643;28;942;-70
2023/01/25 02:45:25;;;;;;;;;;;17.30;63.90;;;;;;5015420;28;797;-71
2023/01/25 02:47:51;;;;;;;;;;;17.30;63.90;;;;;;5024684;28;1831;-71
2023/01/25 02:50:16;;;;;;;;;;;17.30;64.00;;;;;;5023911;28;797;-70
2023/01/25 02:52:42;;;;;;;;;;;17.30;64.00;;;;;;5025399;28;931;-70
2023/01/25 02:55:07;;;;;;;;;;;17.30;64.00;;;;;;5019366;28;1006;-71
2023/01/25 02:57:33;;;;;;;;;;;17.30;64.00;;;;;;5021646;28;1261;-70
2023/01/25 02:59:58;;;;;;;;;;;17.30;64.00;;;;;;5021146;28;1918;-71
2023/01/25 03:02:24;;;;;;;;;;;17.30;64.00;;;;;;5021189;28;840;-72
2023/01/25 03:04:50;;;;;;;;;;;17.30;64.00;;;;;;5018503;28;1769;-72
2023/01/25 03:07:15;;;;;;;;;;;17.30;64.00;;;;;;5019995;28;1257;-72
2023/01/25 03:09:41;;;;;;;;;;;17.30;64.00;;;;;;5016229;28;1439;-73
2023/01/25 03:12:06;;;;;;;;;;;17.30;64.00;;;;;;5019630;28;840;-72
2023/01/25 03:14:32;;;;;;;;;;;17.30;64.00;;;;;;5018670;28;1246;-72
2023/01/25 03:16:57;;;;;;;;;;;17.30;64.00;;;;;;5052404;28;1249;-72
2023/01/25 03:19:23;;;;;;;;;;;17.30;64.00;;;;;;5017766;28;1914;-72
2023/01/25 03:21:48;;;;;;;;;;;17.30;64.00;;;;;;5019376;28;888;-72
2023/01/25 03:24:14;;;;;;;;;;;17.30;64.00;;;;;;5020862;28;805;-72
2023/01/25 03:29:23;;;;;;;;;;;17.30;64.00;;;;;;5019293;28;844;-70
2023/01/25 03:31:49;;;;;;;;;;;17.30;64.00;;;;;;5018354;28;855;-70
2023/01/25 03:34:14;;;;;;;;;;;17.30;64.00;;;;;;5032280;28;1351;-70
2023/01/25 03:36:40;;;;;;;;;;;17.30;64.00;;;;;;5015469;28;1404;-72
2023/01/25 03:39:05;;;;;;;;;;;17.30;64.00;;;;;;5017808;28;1911;-70
2023/01/25 03:41:31;;;;;;;;;;;17.30;64.00;;;;;;5018279;28;916;-71
2023/01/25 03:43:56;;;;;;;;;;;17.30;64.00;;;;;;5021646;28;895;-71
2023/01/25 03:46:21;;;;;;;;;;;17.30;64.00;;;;;;5019452;28;975;-72
2023/01/25 03:48:47;;;;;;;;;;;17.30;64.00;;;;;;5016365;28;1277;-72
2023/01/25 03:51:12;;;;;;;;;;;17.30;64.00;;;;;;5019954;28;890;-72
2023/01/25 03:53:38;;;;;;;;;;;17.30;64.00;;;;;;5022445;28;892;-72
2023/01/25 03:56:07;;;;;;;;;;;17.30;64.00;;;;;;5023709;28;915;-72
2023/01/25 03:58:33;;;;;;;;;;;17.30;64.00;;;;;;5055528;28;1907;-72
2023/01/25 04:00:58;;;;;;;;;;;17.30;64.00;;;;;;5022791;28;998;-71
2023/01/25 04:03:24;;;;;;;;;;;17.30;64.00;;;;;;5023455;28;1364;-71
2023/01/25 04:05:50;;;;;;;;;;;17.30;64.00;;;;;;5019070;28;832;-71
2023/01/25 04:08:16;;;;;;;;;;;17.30;64.00;;;;;;5021741;28;1420;-71
2023/01/25 04:10:41;;;;;;;;;;;17.30;64.00;;;;;;5021934;28;875;-72
2023/01/25 04:13:06;;;;;;;;;;;17.30;64.00;;;;;;5023396;28;1089;-72
2023/01/25 04:15:33;;;;;;;;;;;17.30;64.00;;;;;;5022477;28;1108;-72
2023/01/25 04:17:59;;;;;;;;;;;17.30;64.00;;;;;;5025297;28;1331;-72
2023/01/25 04:20:24;;;;;;;;;;;17.30;64.10;;;;;;5054552;28;1985;-72
2023/01/25 04:22:49;;;;;;;;;;;17.30;64.00;;;;;;5023364;28;904;-72
2023/01/25 04:25:15;;;;;;;;;;;17.30;64.10;;;;;;5022660;28;934;-72
2023/01/25 04:27:40;;;;;;;;;;;17.30;64.00;;;;;;5022925;28;1581;-72
2023/01/25 04:30:06;;;;;;;;;;;17.30;64.10;;;;;;5020251;28;950;-72
2023/01/25 04:32:33;;;;;;;;;;;17.30;64.00;;;;;;5022818;28;832;-73
2023/01/25 04:34:59;;;;;;;;;;;17.30;64.10;;;;;;5018853;28;962;-72
2023/01/25 04:37:24;;;;;;;;;;;17.30;64.10;;;;;;5021593;28;1319;-72
2023/01/25 04:39:50;;;;;;;;;;;17.30;64.10;;;;;;5021346;28;1926;-73
2023/01/25 04:42:15;;;;;;;;;;;17.30;64.10;;;;;;5020207;28;955;-72
2023/01/25 04:44:40;;;;;;;;;;;17.20;64.00;;;;;;5018236;28;1269;-72
2023/01/25 04:47:06;;;;;;;;;;;17.30;64.10;;;;;;5024042;28;1373;-72
2023/01/25 04:49:31;;;;;;;;;;;17.30;64.10;;;;;;5023647;28;1323;-72
2023/01/25 04:51:57;;;;;;;;;;;17.30;64.10;;;;;;5027232;28;970;-72
2023/01/25 04:54:22;;;;;;;;;;;17.20;64.00;;;;;;5022783;28;888;-72
2023/01/25 04:56:48;;;;;;;;;;;17.20;64.00;;;;;;5022050;28;915;-72
2023/01/25 04:59:13;;;;;;;;;;;17.30;64.10;;;;;;5022986;28;1895;-72
2023/01/25 05:01:39;;;;;;;;;;;17.20;64.00;;;;;;5019649;28;867;-72
2023/01/25 05:04:04;;;;;;;;;;;17.30;64.10;;;;;;5020926;28;1369;-72
2023/01/25 05:06:30;;;;;;;;;;;17.20;64.00;;;;;;5019589;28;879;-72
2023/01/25 05:08:55;;;;;;;;;;;17.20;64.00;;;;;;5021883;28;1374;-71
2023/01/25 05:11:21;;;;;;;;;;;17.30;64.00;;;;;;5019443;28;939;-71
2023/01/25 05:13:46;;;;;;;;;;;17.30;64.00;;;;;;5053267;28;1321;-72
2023/01/25 05:16:12;;;;;;;;;;;17.30;63.90;;;;;;5022838;28;839;-71
2023/01/25 05:18:37;;;;;;;;;;;17.30;63.80;;;;;;5019480;28;1977;-71
2023/01/25 05:21:02;;;;;;;;;;;17.40;63.70;;;;;;5022525;28;895;-72
2023/01/25 05:23:28;;;;;;;;;;;17.40;63.60;;;;;;5020260;28;1001;-71
2023/01/25 05:28:38;;;;;;;;;;;17.50;63.30;;;;;;5018954;28;1625;-69
2023/01/25 05:31:03;;;;;;;;;;;17.50;63.20;;;;;;5020722;28;1893;-70
2023/01/25 05:33:29;;;;;;;;;;;17.50;63.10;;;;;;5019953;28;1234;-73
2023/01/25 05:35:55;;;;;;;;;;;17.60;63.00;;;;;;5019369;28;1270;-71
2023/01/25 05:38:20;;;;;;;;;;;17.60;62.80;;;;;;5018054;28;1902;-71
2023/01/25 05:40:46;;;;;;;;;;;17.60;62.80;;;;;;5022070;28;910;-70
2023/01/25 05:43:11;;;;;;;;;;;17.70;62.70;;;;;;5019894;28;875;-71
2023/01/25 05:45:37;;;;;;;;;;;17.70;62.60;;;;;;5020387;28;939;-70
2023/01/25 05:48:02;;;;;;;;;;;17.70;62.50;;;;;;5020676;28;1346;-71
2023/01/25 05:50:28;;;;;;;;;;;17.70;62.50;;;;;;5020074;28;832;-71
2023/01/25 05:52:53;;;;;;;;;;;17.70;62.40;;;;;;5021281;28;895;-70
2023/01/25 05:55:18;;;;;;;;;;;17.70;62.30;;;;;;5023887;28;986;-71
2023/01/25 05:57:44;;;;;;;;;;;17.80;62.30;;;;;;5021430;28;1378;-69
2023/01/25 06:00:10;;;;;;;;;;;17.70;62.20;;;;;;5020095;28;1890;-69
2023/01/25 06:02:35;;;;;;;;;;;17.80;62.30;;;;;;5022810;28;799;-69
2023/01/25 06:05:01;;;;;;;;;;;17.80;62.20;;;;;;5020732;28;1235;-70
2023/01/25 06:07:27;;;;;;;;;;;17.80;62.20;;;;;;5019841;28;1262;-70
2023/01/25 06:09:52;;;;;;;;;;;17.80;62.20;;;;;;5021425;28;876;-70
2023/01/25 06:12:21;;;;;;;;;;;17.80;62.20;;;;;;5020905;28;1209;-69
2023/01/25 06:14:46;;;;;;;;;;;17.80;62.20;;;;;;5021478;28;843;-69
2023/01/25 06:17:12;;;;;;;;;;;17.80;62.10;;;;;;5019228;28;1363;-70
2023/01/25 06:19:37;;;;;;;;;;;17.80;62.10;;;;;;5020403;28;1906;-70
2023/01/25 06:22:03;;;;;;;;;;;17.80;62.10;;;;;;5018823;28;1026;-70
2023/01/25 06:24:28;;;;;;;;;;;17.80;62.10;;;;;;5021309;28;818;-71
2023/01/25 06:26:54;;;;;;;;;;;17.80;62.10;;;;;;5019849;28;920;-72
2023/01/25 06:29:19;;;;;;;;;;;17.80;62.10;;;;;;5026031;28;1429;-71
2023/01/25 06:31:45;;;;;;;;;;;17.80;62.10;;;;;;5019626;28;848;-70
2023/01/25 06:34:10;;;;;;;;;;;17.80;62.10;;;;;;5031542;28;860;-70
2023/01/25 06:36:36;;;;;;;;;;;17.80;62.10;;;;;;5019386;28;1660;-70
2023/01/25 06:39:01;;;;;;;;;;;17.80;62.10;;;;;;5023419;28;1902;-70
2023/01/25 06:41:27;;;;;;;;;;;17.80;62.10;;;;;;5055133;28;1706;-72
2023/01/25 06:43:54;;;;;;;;;;;17.80;62.10;;;;;;5020582;28;875;-69
2023/01/25 06:46:19;;;;;;;;;;;17.80;62.10;;;;;;5017314;28;860;-70
2023/01/25 06:48:45;;;;;;;;;;;17.80;62.00;;;;;;5020691;28;1319;-69
2023/01/25 06:51:11;;;;;;;;;;;17.80;62.00;;;;;;5020739;28;912;-69
2023/01/25 06:53:38;;;;;;;;;;;17.80;62.00;;;;;;5019365;28;982;-69
2023/01/25 06:56:04;;;;;;;;;;;17.80;62.10;;;;;;5019768;28;876;-70
2023/01/25 06:58:30;;;;;;;;;;;17.80;62.00;;;;;;5020264;28;1966;-69
2023/01/25 07:01:15;;;;;;;;;;;17.80;62.00;;;;;;5022789;28;822;-70
2023/01/25 07:03:40;;;;;;;;;;;17.80;62.00;;;;;;5023245;28;1528;-70
2023/01/25 07:06:06;;;;;;;;;;;17.80;62.00;;;;;;5017228;28;1791;-69
2023/01/25 07:08:32;;;;;;;;;;;17.80;62.00;;;;;;5019078;28;1322;-69
2023/01/25 07:11:01;;;;;;;;;;;17.80;62.00;;;;;;5036838;28;1179;-69
2023/01/25 07:13:26;;;;;;;;;;;17.80;62.00;;;;;;5021928;28;978;-69
2023/01/25 07:15:58;;;;;;;;;;;17.80;62.00;;;;;;5021801;28;890;-69
2023/01/25 07:18:25;;;;;;;;;;;17.80;62.00;;;;;;5016670;28;1906;-68
2023/01/25 07:20:50;;;;;;;;;;;17.80;62.00;;;;;;5048494;28;864;-69
2023/01/25 07:23:16;;;;;;;;;;;17.80;62.00;;;;;;5016162;28;854;-69
2023/01/25 07:25:48;;;;;;;;;;;17.80;62.00;;;;;;5019040;28;1321;-69
2023/01/25 07:28:14;;;;;;;;;;;17.80;62.00;;;;;;5018726;28;1339;-69
2023/01/25 07:30:39;;;;;;;;;;;17.80;62.00;;;;;;5020562;28;855;-69
2023/01/25 07:33:05;;;;;;;;;;;17.80;62.00;;;;;;5035973;28;1325;-69
2023/01/25 07:35:31;;;;;;;;;;;17.80;62.00;;;;;;5023055;28;992;-69
2023/01/25 07:37:56;;;;;;;;;;;17.80;62.10;;;;;;5020591;28;1272;-69
2023/01/25 07:40:24;;;;;;;;;;;17.80;62.00;;;;;;5017094;28;1973;-69
2023/01/25 07:42:52;;;;;;;;;;;17.80;62.00;;;;;;5017396;28;891;-69
2023/01/25 07:45:17;;;;;;;;;;;17.80;62.00;;;;;;5017612;28;883;-70
2023/01/25 07:47:43;;;;;;;;;;;17.80;62.00;;;;;;5020565;28;1279;-69
2023/01/25 07:50:09;;;;;;;;;;;17.80;62.10;;;;;;5021321;28;911;-69
2023/01/25 07:52:34;;;;;;;;;;;17.80;62.10;;;;;;5019202;28;903;-69
2023/01/25 07:55:00;;;;;;;;;;;17.80;62.10;;;;;;5021568;28;1089;-71
2023/01/25 07:57:27;;;;;;;;;;;17.80;62.10;;;;;;5016812;28;1282;-70
2023/01/25 07:59:52;;;;;;;;;;;17.80;62.10;;;;;;5051489;28;1906;-70
2023/01/25 08:02:18;;;;;;;;;;;17.80;62.20;;;;;;5016342;28;1273;-72
2023/01/25 08:04:44;;;;;;;;;;;17.80;62.10;;;;;;5033290;28;1136;-70
2023/01/25 08:07:10;;;;;;;;;;;17.80;62.20;;;;;;5018129;28;1334;-71
2023/01/25 08:09:35;;;;;;;;;;;17.80;62.10;;;;;;5053273;28;905;-70
2023/01/25 08:12:00;;;;;;;;;;;17.80;62.10;;;;;;5019769;28;949;-70
2023/01/25 08:14:26;;;;;;;;;;;17.80;62.20;;;;;;5022960;28;1881;-71
2023/01/25 08:16:51;;;;;;;;;;;17.80;62.20;;;;;;5015174;28;938;-71
2023/01/25 08:19:18;;;;;;;;;;;17.80;62.20;;;;;;5019084;28;1906;-70
2023/01/25 08:21:44;;;;;;;;;;;17.80;62.20;;;;;;5031230;28;856;-70
2023/01/25 08:24:10;;;;;;;;;;;17.80;62.20;;;;;;5015853;28;2113;-69
2023/01/25 08:26:35;;;;;;;;;;;17.80;62.20;;;;;;5050758;28;1944;-70
2023/01/25 08:29:01;;;;;;;;;;;17.80;62.20;;;;;;5033447;28;1413;-70
2023/01/25 08:31:27;;;;;;;;;;;17.80;62.20;;;;;;5016900;28;907;-70
2023/01/25 08:33:53;;;;;;;;;;;17.80;62.20;;;;;;5049253;28;806;-70
2023/01/25 08:36:18;;;;;;;;;;;17.80;62.20;;;;;;5018392;28;1045;-70
2023/01/25 08:38:44;;;;;;;;;;;17.80;62.20;;;;;;5034441;28;1961;-69
2023/01/25 08:41:14;;;;;;;;;;;17.80;62.20;;;;;;5019203;28;879;-69
2023/01/25 08:43:40;;;;;;;;;;;17.80;62.20;;;;;;5029450;28;1394;-70
2023/01/25 08:46:05;;;;;;;;;;;17.80;62.20;;;;;;5014459;28;1180;-70
2023/01/25 08:48:31;;;;;;;;;;;17.80;62.10;;;;;;5016699;28;1241;-70
2023/01/25 08:50:56;;;;;;;;;;;17.80;62.20;;;;;;5037336;28;936;-70
2023/01/25 08:53:22;;;;;;;;;;;17.80;62.20;;;;;;5021855;28;848;-70
2023/01/25 08:55:47;;;;;;;;;;;17.80;62.20;;;;;;5021869;28;852;-70
2023/01/25 08:58:14;;;;;;;;;;;17.80;62.20;;;;;;5023047;28;1355;-70
2023/01/25 09:00:40;;;;;;;;;;;17.80;62.20;;;;;;5035990;28;1958;-69
2023/01/25 09:03:06;;;;;;;;;;;17.80;62.20;;;;;;5021211;28;812;-70
2023/01/25 09:05:35;;;;;;;;;;;17.80;62.10;;;;;;5053695;28;1279;-69
2023/01/25 09:08:01;;;;;;;;;;;17.80;62.10;;;;;;5023501;28;1329;-70
2023/01/25 09:10:26;;;;;;;;;;;17.80;62.10;;;;;;5052930;28;1349;-70
2023/01/25 09:12:52;;;;;;;;;;;17.80;62.10;;;;;;5024986;28;908;-70
2023/01/25 09:15:17;;;;;;;;;;;17.80;62.10;;;;;;5029360;28;896;-70
2023/01/25 09:17:43;;;;;;;;;;;17.80;62.10;;;;;;5024463;28;1272;-70
2023/01/25 09:20:09;;;;;;;;;;;17.80;62.10;;;;;;5023028;28;1898;-70
2023/01/25 09:22:35;;;;;;;;;;;17.80;62.00;;;;;;5052148;28;1362;-70
2023/01/25 09:25:00;;;;;;;;;;;17.80;62.00;;;;;;5054537;28;1008;-70
2023/01/25 09:27:25;;;;;;;;;;;17.80;62.00;;;;;;5022134;28;1260;-70
2023/01/25 09:29:51;;;;;;;;;;;17.80;62.00;;;;;;5021077;28;923;-70
2023/01/25 09:32:16;;;;;;;;;;;17.80;62.00;;;;;;5022295;28;1151;-70
2023/01/25 09:34:42;;;;;;;;;;;17.80;62.00;;;;;;5020174;28;853;-70
2023/01/25 09:37:07;;;;;;;;;;;17.80;61.90;;;;;;5022473;28;1346;-69
2023/01/25 09:39:33;;;;;;;;;;;17.90;62.00;;;;;;5020851;28;1950;-70
2023/01/25 09:42:13;;;;;;;;;;;17.90;62.00;;;;;;5019548;28;931;-69
2023/01/25 09:44:39;;;;;;;;;;;17.80;61.90;;;;;;5019783;28;1030;-70
2023/01/25 09:47:09;;;;;;;;;;;17.80;61.90;;;;;;5021026;28;1266;-69
2023/01/25 09:49:40;;;;;;;;;;;17.90;62.00;;;;;;5052654;28;986;-70
2023/01/25 09:52:06;;;;;;;;;;;17.80;62.00;;;;;;5037740;28;1828;-69
2023/01/25 09:54:32;;;;;;;;;;;17.80;61.90;;;;;;5017705;28;883;-69
2023/01/25 09:56:58;;;;;;;;;;;17.90;62.00;;;;;;5039237;28;1205;-69
2023/01/25 09:59:25;;;;;;;;;;;17.90;62.00;;;;;;5051023;28;1898;-69
2023/01/25 10:01:55;;;;;;;;;;;17.90;62.00;;;;;;5037033;28;854;-70
2023/01/25 10:04:32;;;;;;;;;;;17.90;62.00;;;;;;5052091;28;1333;-69
2023/01/25 10:07:01;;;;;;;;;;;17.90;62.00;;;;;;5022613;28;1287;-70
2023/01/25 10:09:36;;;;;;;;;;;17.90;62.00;;;;;;5051857;28;1285;-70
2023/01/25 10:12:08;;;;;;;;;;;17.90;62.00;;;;;;5011211;28;1477;-70
2023/01/25 10:14:34;;;;;;;;;;;17.80;62.00;;;;;;5041408;28;1364;-70
2023/01/25 10:17:04;;;;;;;;;;;17.90;62.80;;;;;;5020584;28;1269;-70
2023/01/25 10:20:09;;;;;;;;;;;17.90;62.00;;;;;;5020776;28;1962;-69
2023/01/25 10:22:35;;;;;;;;;;;17.80;61.90;;;;;;5000125;28;1322;-69
2023/01/25 10:25:04;;;;;;;;;;;17.80;61.90;;;;;;4999539;28;2248;-70
2023/01/25 10:27:41;;;;;;;;;;;17.80;61.90;;;;;;5010146;28;2021;-70
2023/01/25 10:30:15;;;;;;;;;;;17.80;62.00;;;;;;5021836;28;1292;-69
2023/01/25 10:32:40;;;;;;;;;;;17.80;62.00;;;;;;5022928;28;1341;-70
2023/01/25 10:35:16;;;;;;;;;;;17.80;62.00;;;;;;5022192;28;1355;-70
2023/01/25 10:37:41;;;;;;;;;;;17.80;62.00;;;;;;5018550;28;2148;-71
2023/01/25 10:40:15;;;;;;;;;;;17.80;62.00;;;;;;5012036;28;1894;-71
2023/01/25 10:42:52;;;;;;;;;;;17.80;62.00;;;;;;5024365;28;887;-72
2023/01/25 10:45:18;;;;;;;;;;;17.80;62.10;;;;;;5054355;28;2069;-74
2023/01/25 10:47:47;;;;;;;;;;;17.80;62.00;;;;;;5024222;28;1451;-73
2023/01/25 10:50:45;;;;;;;;;;;17.80;62.00;;;;;;5024658;28;1461;-74
2023/01/25 10:53:20;;;;;;;;;;;17.80;62.80;;;;;;5018697;28;1087;-72
2023/01/25 10:56:12;;;;;;;;;;;17.80;62.00;;;;;;5049296;28;1147;-72
2023/01/25 10:58:41;;;;;;;;;;;17.80;62.00;;;;;;5016979;28;1906;-71
2023/01/25 11:01:07;;;;;;;;;;;17.80;62.00;;;;;;5019316;28;919;-71
2023/01/25 11:03:34;;;;;;;;;;;17.80;62.00;;;;;;5019719;28;1344;-71
2023/01/25 11:05:59;;;;;;;;;;;17.80;62.00;;;;;;5017706;28;923;-71
2023/01/25 11:08:25;;;;;;;;;;;17.80;62.00;;;;;;5020627;28;1384;-72
2023/01/25 11:10:51;;;;;;;;;;;17.80;62.00;;;;;;5017062;28;944;-71
2023/01/25 11:13:18;;;;;;;;;;;17.80;62.00;;;;;;5052364;28;890;-72
2023/01/25 11:15:43;;;;;;;;;;;17.90;62.00;;;;;;5017703;28;832;-71
2023/01/25 11:18:12;;;;;;;;;;;17.80;61.90;;;;;;5050295;28;1363;-71
2023/01/25 11:20:38;;;;;;;;;;;17.80;62.00;;;;;;5048967;28;1906;-71
2023/01/25 11:23:08;;;;;;;;;;;17.80;62.00;;;;;;5022060;28;923;-71
2023/01/25 11:25:34;;;;;;;;;;;17.80;61.90;;;;;;5021035;28;1149;-70
2023/01/25 11:28:09;;;;;;;;;;;17.80;61.90;;;;;;5016443;28;1277;-70
2023/01/25 11:30:34;;;;;;;;;;;17.80;62.00;;;;;;5019498;28;840;-71
2023/01/25 11:32:59;;;;;;;;;;;17.80;62.00;;;;;;5019005;28;831;-70
2023/01/25 11:35:26;;;;;;;;;;;17.80;62.00;;;;;;5019896;28;1713;-71
2023/01/25 11:37:58;;;;;;;;;;;17.80;61.90;;;;;;5022306;28;1346;-72
2023/01/25 11:40:30;;;;;;;;;;;17.80;61.90;;;;;;5048474;28;1906;-73
2023/01/25 11:43:14;;;;;;;;;;;17.80;61.90;;;;;;5015256;28;895;-71
2023/01/25 11:45:44;;;;;;;;;;;17.80;61.90;;;;;;5017942;28;1002;-72
2023/01/25 11:48:28;;;;;;;;;;;17.90;62.00;;;;;;5052944;28;1356;-73
2023/01/25 11:51:04;;;;;;;;;;;17.90;62.00;;;;;;5018070;28;863;-71
2023/01/25 11:53:34;;;;;;;;;;;17.90;62.00;;;;;;5016394;28;1082;-71
2023/01/25 11:56:18;;;;;;;;;;;17.90;62.00;;;;;;5049169;28;1081;-70
2023/01/25 11:59:02;;;;;;;;;;;17.90;61.90;;;;;;5019467;28;1910;-72
2023/01/25 12:01:49;;;;;;;;;;;17.90;62.00;;;;;;5018726;28;1025;-71
2023/01/25 12:04:22;;;;;;;;;;;17.80;61.80;;;;;;5050994;28;1665;-73
2023/01/25 12:06:54;;;;;;;;;;;17.90;62.00;;;;;;5033082;28;1106;-73
2023/01/25 12:09:28;;;;;;;;;;;17.90;61.90;;;;;;5019070;28;1214;-73
2023/01/25 12:12:20;;;;;;;;;;;17.90;62.00;;;;;;5019306;28;841;-73
2023/01/25 12:14:56;;;;;;;;;;;17.90;62.00;;;;;;5021856;28;1087;-70
2023/01/25 12:17:24;;;;;;;;;;;17.90;62.00;;;;;;5025851;28;1334;-72
2023/01/25 12:19:59;;;;;;;;;;;17.80;61.90;;;;;;5024036;28;1974;-74
2023/01/25 12:22:34;;;;;;;;;;;17.90;62.00;;;;;;5024514;28;886;-72
2023/01/25 12:25:19;;;;;;;;;;;17.80;62.60;;;;;;5021236;28;840;-72
2023/01/25 12:27:44;;;;;;;;;;;17.90;62.00;;;;;;5029440;28;1275;-71
2023/01/25 12:30:22;;;;;;;;;;;17.90;62.00;;;;;;5022241;28;917;-72
2023/01/25 12:32:52;;;;;;;;;;;17.80;61.90;;;;;;5025790;28;1006;-71
2023/01/25 12:35:27;;;;;;;;;;;17.80;61.90;;;;;;5054976;28;1385;-72
2023/01/25 12:37:54;;;;;;;;;;;17.90;62.00;;;;;;5037322;28;1256;-71
2023/01/25 12:40:40;;;;;;;;;;;17.80;62.10;;;;;;5024289;28;1902;-71
2023/01/25 12:43:08;;;;;;;;;;;17.90;62.10;;;;;;5001101;28;1197;-71
2023/01/25 12:45:34;;;;;;;;;;;17.80;62.00;;;;;;5051189;28;1395;-71
2023/01/25 12:48:12;;;;;;;;;;;17.80;62.00;;;;;;5021237;28;1420;-71
2023/01/25 12:50:39;;;;;;;;;;;17.80;62.00;;;;;;5051582;28;900;-71
2023/01/25 12:53:07;;;;;;;;;;;17.80;62.00;;;;;;5022659;28;1070;-71
2023/01/25 12:55:33;;;;;;;;;;;17.80;62.00;;;;;;5019598;28;800;-71
2023/01/25 12:58:37;;;;;;;;;;;17.80;62.00;;;;;;5020853;28;1244;-73
2023/01/25 13:01:03;;;;;;;;;;;17.80;62.10;;;;;;4999247;28;1180;-73
2023/01/25 13:03:46;;;;;;;;;;;17.80;62.20;;;;;;5000613;28;1321;-73
2023/01/25 13:06:15;;;;;;;;;;;17.80;62.20;;;;;;5002373;28;1361;-73
2023/01/25 13:08:40;;;;;;;;;;;17.80;62.20;;;;;;5023709;28;1355;-73
2023/01/25 13:11:05;;;;;;;;;;;17.80;62.30;;;;;;5036943;28;1296;-73
2023/01/25 13:13:32;;;;;;;;;;;17.70;62.20;;;;;;5021373;28;852;-73
2023/01/25 13:15:57;;;;;;;;;;;17.70;62.30;;;;;;5022802;28;822;-72
2023/01/25 13:18:32;;;;;;;;;;;17.70;62.30;;;;;;5024115;28;1392;-72
2023/01/25 13:20:58;;;;;;;;;;;17.70;62.40;;;;;;5054030;28;1975;-72
2023/01/25 13:23:34;;;;;;;;;;;17.70;62.40;;;;;;5020160;28;942;-73
2023/01/25 13:26:18;;;;;;;;;;;17.70;62.40;;;;;;5052440;28;867;-74
2023/01/25 13:28:45;;;;;;;;;;;17.70;62.50;;;;;;5021778;28;1255;-73
2023/01/25 13:31:31;;;;;;;;;;;17.70;62.50;;;;;;5025024;28;864;-72
2023/01/25 13:33:59;;;;;;;;;;;17.70;62.50;;;;;;5018386;28;1242;-73
2023/01/25 13:36:37;;;;;;;;;;;17.70;62.50;;;;;;5050420;28;1175;-73
2023/01/25 13:39:21;;;;;;;;;;;17.70;62.50;;;;;;5022729;28;1959;-73
2023/01/25 13:41:56;;;;;;;;;;;17.70;62.60;;;;;;5019187;28;1022;-73
2023/01/25 13:44:27;;;;;;;;;;;17.60;62.60;;;;;;5051138;28;907;-73
2023/01/25 13:46:53;;;;;;;;;;;17.60;62.60;;;;;;5049294;28;800;-73
2023/01/25 13:49:20;;;;;;;;;;;17.70;62.70;;;;;;5023651;28;1169;-72
2023/01/25 13:51:45;;;;;;;;;;;17.60;62.70;;;;;;5050645;28;1105;-72
2023/01/25 13:54:13;;;;;;;;;;;17.60;62.70;;;;;;5020176;28;1385;-71
2023/01/25 13:56:39;;;;;;;;;;;17.60;62.70;;;;;;5047964;28;950;-71
2023/01/25 13:59:04;;;;;;;;;;;17.60;62.80;;;;;;5019949;28;1965;-71
2023/01/25 14:01:30;;;;;;;;;;;17.60;62.70;;;;;;5050868;28;1054;-71
2023/01/25 14:04:00;;;;;;;;;;;17.60;62.70;;;;;;5007293;28;1598;-71
2023/01/25 14:06:27;;;;;;;;;;;17.60;62.70;;;;;;5021994;28;1080;-71
2023/01/25 14:08:53;;;;;;;;;;;17.60;62.70;;;;;;5050932;28;1376;-71
2023/01/25 14:11:25;;;;;;;;;;;17.70;62.60;;;;;;5020646;28;1254;-70
2023/01/25 14:14:13;;;;;;;;;;;17.70;62.50;;;;;;5018817;28;816;-70
2023/01/25 14:16:39;;;;;;;;;;;17.70;62.40;;;;;;5025494;28;1359;-70
2023/01/25 14:19:19;;;;;;;;;;;17.70;62.30;;;;;;5020654;28;1977;-70
2023/01/25 14:21:45;;;;;;;;;;;17.80;62.20;;;;;;5019065;28;904;-70
2023/01/25 14:24:11;;;;;;;;;;;17.80;62.10;;;;;;5019829;28;865;-70
2023/01/25 14:26:37;;;;;;;;;;;17.80;62.00;;;;;;5021696;28;790;-69
2023/01/25 14:29:02;;;;;;;;;;;17.80;62.00;;;;;;5010897;28;1335;-71
2023/01/25 14:31:31;;;;;;;;;;;17.80;61.90;;;;;;5018535;28;927;-71
2023/01/25 14:33:57;;;;;;;;;;;17.90;62.00;;;;;;5052997;28;879;-71
2023/01/25 14:36:26;;;;;;;;;;;17.90;61.80;;;;;;5021509;28;1296;-70
2023/01/25 14:38:52;;;;;;;;;;;17.90;61.80;;;;;;5018837;28;1972;-69
2023/01/25 14:41:36;;;;;;;;;;;17.90;61.70;;;;;;5053243;28;944;-71
2023/01/25 14:44:09;;;;;;;;;;;17.90;61.70;;;;;;5051385;28;890;-73
2023/01/25 14:46:35;;;;;;;;;;;17.90;61.70;;;;;;5050824;28;951;-71